sensor_id;sensor_type;location;lat;lon;timestamp;P1;durP1;ratioP1;P2;durP2;ratioP2
50086;SDS011;35967;50.718;7.050;2023-04-27T00:05:19;7.47;;;2.63;;
50086;SDS011;35967;50.718;7.050;2023-04-27T00:15:23;12.00;;;2.67;;
50086;SDS011;35967;50.718;7.050;2023-04-27T00:25:27;7.77;;;2.50;;
50086;SDS011;35967;50.718;7.050;2023-04-27T00:35:32;8.70;;;3.40;;
50086;SDS011;35967;50.718;7.050;2023-04-27T00:45:36;9.50;;;3.67;;
50086;SDS011;35967;50.718;7.050;2023-04-27T00:55:44;10.53;;;3.23;;
50086;SDS011;35967;50.718;7.050;2023-04-27T01:05:48;12.13;;;4.10;;
50086;SDS011;35967;50.718;7.050;2023-04-27T01:15:53;7.30;;;3.30;;
50086;SDS011;35967;50.718;7.050;2023-04-27T01:25:57;9.17;;;3.47;;
50086;SDS011;35967;50.718;7.050;2023-04-27T01:36:02;7.03;;;3.37;;
50086;SDS011;35967;50.718;7.050;2023-04-27T01:46:06;8.57;;;3.30;;
50086;SDS011;35967;50.718;7.050;2023-04-27T01:56:10;12.13;;;3.70;;
50086;SDS011;35967;50.718;7.050;2023-04-27T02:06:15;12.63;;;3.33;;
50086;SDS011;35967;50.718;7.050;2023-04-27T02:16:19;6.63;;;3.17;;
50086;SDS011;35967;50.718;7.050;2023-04-27T02:26:24;10.07;;;3.33;;
50086;SDS011;35967;50.718;7.050;2023-04-27T02:36:30;9.03;;;3.43;;
50086;SDS011;35967;50.718;7.050;2023-04-27T02:46:35;11.57;;;4.13;;
50086;SDS011;35967;50.718;7.050;2023-04-27T02:56:38;8.90;;;3.63;;
50086;SDS011;35967;50.718;7.050;2023-04-27T03:06:42;8.60;;;3.90;;
50086;SDS011;35967;50.718;7.050;2023-04-27T03:16:46;5.07;;;3.10;;
50086;SDS011;35967;50.718;7.050;2023-04-27T03:26:50;12.03;;;4.00;;
50086;SDS011;35967;50.718;7.050;2023-04-27T03:36:54;9.43;;;3.63;;
50086;SDS011;35967;50.718;7.050;2023-04-27T03:46:59;8.13;;;3.80;;
50086;SDS011;35967;50.718;7.050;2023-04-27T03:57:03;10.77;;;4.33;;
50086;SDS011;35967;50.718;7.050;2023-04-27T04:07:07;15.70;;;4.87;;
50086;SDS011;35967;50.718;7.050;2023-04-27T04:17:10;7.80;;;4.50;;
50086;SDS011;35967;50.718;7.050;2023-04-27T04:27:16;12.30;;;5.10;;
50086;SDS011;35967;50.718;7.050;2023-04-27T04:37:19;13.33;;;4.83;;
50086;SDS011;35967;50.718;7.050;2023-04-27T04:47:23;10.27;;;5.20;;
50086;SDS011;35967;50.718;7.050;2023-04-27T04:57:27;7.47;;;4.33;;
50086;SDS011;35967;50.718;7.050;2023-04-27T05:07:33;14.27;;;5.27;;
50086;SDS011;35967;50.718;7.050;2023-04-27T05:17:36;11.47;;;5.30;;
50086;SDS011;35967;50.718;7.050;2023-04-27T05:27:40;14.30;;;5.13;;
50086;SDS011;35967;50.718;7.050;2023-04-27T05:37:43;15.83;;;5.60;;
50086;SDS011;35967;50.718;7.050;2023-04-27T05:47:47;14.00;;;5.70;;
50086;SDS011;35967;50.718;7.050;2023-04-27T05:57:51;13.97;;;6.53;;
50086;SDS011;35967;50.718;7.050;2023-04-27T06:08:11;13.97;;;6.47;;
50086;SDS011;35967;50.718;7.050;2023-04-27T06:18:14;15.90;;;6.03;;
50086;SDS011;35967;50.718;7.050;2023-04-27T06:28:19;13.27;;;6.07;;
50086;SDS011;35967;50.718;7.050;2023-04-27T06:38:22;12.87;;;5.60;;
50086;SDS011;35967;50.718;7.050;2023-04-27T06:48:27;13.00;;;6.23;;
50086;SDS011;35967;50.718;7.050;2023-04-27T06:58:31;10.57;;;6.23;;
50086;SDS011;35967;50.718;7.050;2023-04-27T07:08:35;9.60;;;5.37;;
50086;SDS011;35967;50.718;7.050;2023-04-27T07:18:39;14.33;;;5.77;;
50086;SDS011;35967;50.718;7.050;2023-04-27T07:28:45;14.07;;;5.30;;
50086;SDS011;35967;50.718;7.050;2023-04-27T07:38:48;14.37;;;6.03;;
50086;SDS011;35967;50.718;7.050;2023-04-27T07:48:53;10.50;;;4.83;;
50086;SDS011;35967;50.718;7.050;2023-04-27T07:58:56;12.43;;;5.20;;
50086;SDS011;35967;50.718;7.050;2023-04-27T08:09:00;15.00;;;5.13;;
50086;SDS011;35967;50.718;7.050;2023-04-27T08:19:04;11.50;;;5.60;;
50086;SDS011;35967;50.718;7.050;2023-04-27T08:29:09;13.53;;;5.40;;
50086;SDS011;35967;50.718;7.050;2023-04-27T08:39:27;13.10;;;5.67;;
50086;SDS011;35967;50.718;7.050;2023-04-27T08:49:31;11.80;;;5.50;;
50086;SDS011;35967;50.718;7.050;2023-04-27T08:59:35;9.70;;;4.50;;
50086;SDS011;35967;50.718;7.050;2023-04-27T09:09:40;13.00;;;4.50;;
50086;SDS011;35967;50.718;7.050;2023-04-27T09:19:43;10.07;;;5.33;;
50086;SDS011;35967;50.718;7.050;2023-04-27T09:29:48;10.03;;;4.97;;
50086;SDS011;35967;50.718;7.050;2023-04-27T09:39:52;10.50;;;4.70;;
50086;SDS011;35967;50.718;7.050;2023-04-27T09:49:56;17.87;;;5.80;;
50086;SDS011;35967;50.718;7.050;2023-04-27T10:00:04;9.13;;;4.80;;
50086;SDS011;35967;50.718;7.050;2023-04-27T10:10:18;12.73;;;4.73;;
50086;SDS011;35967;50.718;7.050;2023-04-27T10:20:27;14.60;;;5.80;;
50086;SDS011;35967;50.718;7.050;2023-04-27T10:30:33;13.67;;;4.50;;
50086;SDS011;35967;50.718;7.050;2023-04-27T10:40:39;12.57;;;4.97;;
50086;SDS011;35967;50.718;7.050;2023-04-27T10:50:44;8.37;;;4.43;;
50086;SDS011;35967;50.718;7.050;2023-04-27T11:00:47;9.83;;;5.50;;
50086;SDS011;35967;50.718;7.050;2023-04-27T11:10:51;11.00;;;4.57;;
50086;SDS011;35967;50.718;7.050;2023-04-27T11:21:04;17.17;;;6.27;;
50086;SDS011;35967;50.718;7.050;2023-04-27T11:31:10;10.67;;;4.97;;
50086;SDS011;35967;50.718;7.050;2023-04-27T11:41:14;12.23;;;3.47;;
50086;SDS011;35967;50.718;7.050;2023-04-27T11:51:19;9.27;;;3.30;;
50086;SDS011;35967;50.718;7.050;2023-04-27T12:01:26;11.53;;;3.90;;
50086;SDS011;35967;50.718;7.050;2023-04-27T12:11:40;12.97;;;4.73;;
50086;SDS011;35967;50.718;7.050;2023-04-27T12:21:43;11.33;;;4.67;;
50086;SDS011;35967;50.718;7.050;2023-04-27T12:31:48;9.23;;;3.37;;
50086;SDS011;35967;50.718;7.050;2023-04-27T12:41:51;11.13;;;4.33;;
50086;SDS011;35967;50.718;7.050;2023-04-27T12:51:57;10.37;;;3.50;;
50086;SDS011;35967;50.718;7.050;2023-04-27T13:02:00;11.93;;;4.43;;
50086;SDS011;35967;50.718;7.050;2023-04-27T13:12:06;12.73;;;4.47;;
50086;SDS011;35967;50.718;7.050;2023-04-27T13:22:09;10.40;;;4.13;;
50086;SDS011;35967;50.718;7.050;2023-04-27T13:32:14;15.03;;;4.13;;
50086;SDS011;35967;50.718;7.050;2023-04-27T13:42:17;10.93;;;3.60;;
50086;SDS011;35967;50.718;7.050;2023-04-27T13:52:22;8.27;;;3.67;;
50086;SDS011;35967;50.718;7.050;2023-04-27T14:02:25;9.23;;;3.50;;
50086;SDS011;35967;50.718;7.050;2023-04-27T14:12:31;12.07;;;4.07;;
50086;SDS011;35967;50.718;7.050;2023-04-27T14:22:34;9.57;;;3.57;;
50086;SDS011;35967;50.718;7.050;2023-04-27T14:32:39;9.40;;;3.17;;
50086;SDS011;35967;50.718;7.050;2023-04-27T14:42:42;9.37;;;4.20;;
50086;SDS011;35967;50.718;7.050;2023-04-27T14:52:47;10.83;;;3.33;;
50086;SDS011;35967;50.718;7.050;2023-04-27T15:02:51;9.17;;;3.97;;
50086;SDS011;35967;50.718;7.050;2023-04-27T15:12:56;8.77;;;2.60;;
50086;SDS011;35967;50.718;7.050;2023-04-27T15:22:59;9.07;;;3.03;;
50086;SDS011;35967;50.718;7.050;2023-04-27T15:33:03;10.70;;;2.83;;
50086;SDS011;35967;50.718;7.050;2023-04-27T15:43:10;12.33;;;2.27;;
50086;SDS011;35967;50.718;7.050;2023-04-27T15:53:15;7.73;;;2.40;;
50086;SDS011;35967;50.718;7.050;2023-04-27T16:03:18;30.10;;;4.67;;
50086;SDS011;35967;50.718;7.050;2023-04-27T16:13:23;4.43;;;2.40;;
50086;SDS011;35967;50.718;7.050;2023-04-27T16:23:27;11.80;;;3.27;;
50086;SDS011;35967;50.718;7.050;2023-04-27T16:33:32;9.83;;;5.07;;
50086;SDS011;35967;50.718;7.050;2023-04-27T16:43:36;8.97;;;3.20;;
50086;SDS011;35967;50.718;7.050;2023-04-27T16:53:40;4.97;;;2.33;;
50086;SDS011;35967;50.718;7.050;2023-04-27T17:03:44;8.07;;;2.33;;
50086;SDS011;35967;50.718;7.050;2023-04-27T17:13:49;7.73;;;2.13;;
50086;SDS011;35967;50.718;7.050;2023-04-27T17:23:53;6.10;;;2.20;;
50086;SDS011;35967;50.718;7.050;2023-04-27T17:33:57;7.30;;;2.00;;
50086;SDS011;35967;50.718;7.050;2023-04-27T17:44:00;11.87;;;2.03;;
50086;SDS011;35967;50.718;7.050;2023-04-27T17:54:05;8.30;;;2.07;;
50086;SDS011;35967;50.718;7.050;2023-04-27T18:04:09;8.37;;;1.70;;
50086;SDS011;35967;50.718;7.050;2023-04-27T18:14:14;7.10;;;1.87;;
50086;SDS011;35967;50.718;7.050;2023-04-27T18:24:17;5.20;;;1.80;;
50086;SDS011;35967;50.718;7.050;2023-04-27T18:34:21;7.23;;;2.07;;
50086;SDS011;35967;50.718;7.050;2023-04-27T18:44:24;6.63;;;1.80;;
50086;SDS011;35967;50.718;7.050;2023-04-27T18:54:29;6.03;;;1.60;;
50086;SDS011;35967;50.718;7.050;2023-04-27T19:04:32;6.93;;;1.60;;
50086;SDS011;35967;50.718;7.050;2023-04-27T19:14:36;9.53;;;1.77;;
50086;SDS011;35967;50.718;7.050;2023-04-27T19:24:39;5.87;;;1.77;;
50086;SDS011;35967;50.718;7.050;2023-04-27T19:34:44;8.07;;;1.40;;
50086;SDS011;35967;50.718;7.050;2023-04-27T19:44:47;6.03;;;1.57;;
50086;SDS011;35967;50.718;7.050;2023-04-27T19:54:52;7.60;;;1.70;;
50086;SDS011;35967;50.718;7.050;2023-04-27T20:04:56;6.97;;;1.97;;
50086;SDS011;35967;50.718;7.050;2023-04-27T20:15:01;5.67;;;1.50;;
50086;SDS011;35967;50.718;7.050;2023-04-27T20:25:06;7.73;;;1.77;;
50086;SDS011;35967;50.718;7.050;2023-04-27T20:35:10;8.77;;;2.57;;
50086;SDS011;35967;50.718;7.050;2023-04-27T20:45:14;11.33;;;2.33;;
50086;SDS011;35967;50.718;7.050;2023-04-27T20:55:19;6.40;;;1.73;;
50086;SDS011;35967;50.718;7.050;2023-04-27T21:05:22;5.27;;;2.03;;
50086;SDS011;35967;50.718;7.050;2023-04-27T21:15:28;8.77;;;1.77;;
50086;SDS011;35967;50.718;7.050;2023-04-27T21:25:31;5.90;;;2.63;;
50086;SDS011;35967;50.718;7.050;2023-04-27T21:35:37;9.37;;;2.90;;
50086;SDS011;35967;50.718;7.050;2023-04-27T21:45:40;11.07;;;3.00;;
50086;SDS011;35967;50.718;7.050;2023-04-27T21:55:45;6.83;;;3.03;;
50086;SDS011;35967;50.718;7.050;2023-04-27T22:05:49;10.90;;;3.63;;
50086;SDS011;35967;50.718;7.050;2023-04-27T22:15:54;8.20;;;2.37;;
50086;SDS011;35967;50.718;7.050;2023-04-27T22:25:57;8.47;;;2.87;;
50086;SDS011;35967;50.718;7.050;2023-04-27T22:36:02;8.07;;;2.50;;
50086;SDS011;35967;50.718;7.050;2023-04-27T22:46:06;6.73;;;1.80;;
50086;SDS011;35967;50.718;7.050;2023-04-27T22:56:11;8.37;;;1.50;;
50086;SDS011;35967;50.718;7.050;2023-04-27T23:06:14;7.13;;;1.40;;
50086;SDS011;35967;50.718;7.050;2023-04-27T23:16:18;5.93;;;1.27;;
50086;SDS011;35967;50.718;7.050;2023-04-27T23:26:22;7.17;;;1.30;;
50086;SDS011;35967;50.718;7.050;2023-04-27T23:36:27;7.03;;;1.43;;
50086;SDS011;35967;50.718;7.050;2023-04-27T23:46:31;3.73;;;1.50;;
50086;SDS011;35967;50.718;7.050;2023-04-27T23:56:35;8.30;;;1.50;;
